JAL313 RJTT-RJFF
Flight info
| Callsign | JAL313 |
|---|---|
| Flight time | 1h 39m |
| Altitude | 40000 |
| Route | TIARA GUSRO Y20 KIRIN |
| Aircraft | A359/H-SDE2E3GHIJ3J4J5LM1ORWXY/LB1D1 |
Departure
| Time | 2026-05-09 02:22 |
|---|---|
| Airport | Tokyo Haneda International Airport (RJTT) |
Arrival
| Time | 2026-05-09 04:02 |
|---|---|
| Airport | Fukuoka Airport (RJFF) |
| Time | Latitude | Longitude | Altitude | Speed | Heading |
|---|---|---|---|---|---|
| 2026-05-09 01:37 | 35.55068 | 139.78119 | 29 ft | 0 kts | 27° |
| 2026-05-09 02:10 | 35.55064 | 139.78117 | 29 ft | 2 kts | 27° |
| 2026-05-09 02:11 | 35.55049 | 139.78108 | 28 ft | 2 kts | 28° |
| 2026-05-09 02:11 | 35.55034 | 139.78098 | 28 ft | 2 kts | 26° |
| 2026-05-09 02:11 | 35.55020 | 139.78089 | 27 ft | 2 kts | 27° |
| 2026-05-09 02:11 | 35.55005 | 139.78080 | 27 ft | 2 kts | 27° |
| 2026-05-09 02:12 | 35.54990 | 139.78070 | 26 ft | 2 kts | 28° |
| 2026-05-09 02:12 | 35.54975 | 139.78062 | 27 ft | 2 kts | 22° |
| 2026-05-09 02:12 | 35.54963 | 139.78049 | 27 ft | 2 kts | 87° |
| 2026-05-09 02:12 | 35.54965 | 139.78029 | 25 ft | 2 kts | 126° |
| 2026-05-09 02:13 | 35.54977 | 139.78015 | 27 ft | 2 kts | 145° |
| 2026-05-09 02:13 | 35.54991 | 139.78004 | 26 ft | 2 kts | 149° |
| 2026-05-09 02:13 | 35.54998 | 139.78000 | 28 ft | 0 kts | 149° |
| 2026-05-09 02:16 | 35.54952 | 139.78033 | 29 ft | 14 kts | 149° |
| 2026-05-09 02:16 | 35.54854 | 139.78103 | 29 ft | 18 kts | 150° |
| 2026-05-09 02:16 | 35.54740 | 139.78183 | 30 ft | 20 kts | 150° |
| 2026-05-09 02:17 | 35.54615 | 139.78272 | 30 ft | 22 kts | 150° |
| 2026-05-09 02:17 | 35.54475 | 139.78371 | 30 ft | 24 kts | 150° |
| 2026-05-09 02:17 | 35.54326 | 139.78477 | 31 ft | 26 kts | 149° |
| 2026-05-09 02:17 | 35.54162 | 139.78593 | 27 ft | 28 kts | 150° |
| 2026-05-09 02:18 | 35.54002 | 139.78707 | 26 ft | 27 kts | 150° |
| 2026-05-09 02:18 | 35.53834 | 139.78826 | 32 ft | 27 kts | 150° |
| 2026-05-09 02:18 | 35.53670 | 139.78943 | 29 ft | 28 kts | 150° |
| 2026-05-09 02:18 | 35.53501 | 139.79063 | 30 ft | 27 kts | 150° |
| 2026-05-09 02:19 | 35.53378 | 139.79186 | 29 ft | 22 kts | 111° |
| 2026-05-09 02:19 | 35.53419 | 139.79354 | 30 ft | 21 kts | 59° |
| 2026-05-09 02:19 | 35.53494 | 139.79510 | 29 ft | 21 kts | 59° |
| 2026-05-09 02:19 | 35.53570 | 139.79671 | 32 ft | 24 kts | 60° |
| 2026-05-09 02:20 | 35.53653 | 139.79846 | 28 ft | 24 kts | 60° |
| 2026-05-09 02:20 | 35.53739 | 139.80028 | 28 ft | 25 kts | 60° |
| 2026-05-09 02:20 | 35.53836 | 139.80205 | 28 ft | 24 kts | 51° |
| 2026-05-09 02:20 | 35.53904 | 139.80342 | 33 ft | 17 kts | 60° |
| 2026-05-09 02:21 | 35.53958 | 139.80455 | 39 ft | 14 kts | 55° |
| 2026-05-09 02:21 | 35.54040 | 139.80462 | 39 ft | 13 kts | 332° |
| 2026-05-09 02:21 | 35.54150 | 139.80385 | 36 ft | 37 kts | 330° |
| 2026-05-09 02:21 | 35.54586 | 139.80077 | 35 ft | 105 kts | 330° |
| 2026-05-09 02:22 | 35.55381 | 139.79497 | 142 ft | 152 kts | 330° |
| 2026-05-09 02:22 | 35.56322 | 139.78788 | 630 ft | 166 kts | 331° |
| 2026-05-09 02:22 | 35.57364 | 139.78141 | 1468 ft | 170 kts | 338° |
| 2026-05-09 02:22 | 35.58600 | 139.78250 | 1965 ft | 198 kts | 18° |
| 2026-05-09 02:23 | 35.59651 | 139.79549 | 2216 ft | 237 kts | 54° |
| 2026-05-09 02:23 | 35.60391 | 139.81453 | 2595 ft | 256 kts | 59° |
| 2026-05-09 02:23 | 35.61061 | 139.83550 | 3211 ft | 270 kts | 72° |
| 2026-05-09 02:23 | 35.61190 | 139.85902 | 3852 ft | 281 kts | 86° |
| 2026-05-09 02:24 | 35.61127 | 139.88299 | 4467 ft | 287 kts | 88° |
| 2026-05-09 02:24 | 35.61056 | 139.90790 | 5120 ft | 291 kts | 88° |
| 2026-05-09 02:24 | 35.61313 | 139.93220 | 5760 ft | 287 kts | 65° |
| 2026-05-09 02:24 | 35.62408 | 139.95181 | 6417 ft | 276 kts | 34° |
| 2026-05-09 02:25 | 35.64060 | 139.96228 | 6848 ft | 264 kts | 7° |
| 2026-05-09 02:25 | 35.65871 | 139.96503 | 7012 ft | 260 kts | 358° |
| 2026-05-09 02:25 | 35.67681 | 139.96592 | 7392 ft | 264 kts | 356° |
| 2026-05-09 02:25 | 35.69522 | 139.96640 | 8197 ft | 263 kts | 353° |
| 2026-05-09 02:26 | 35.71299 | 139.96260 | 8937 ft | 257 kts | 335° |
| 2026-05-09 02:26 | 35.72817 | 139.95137 | 9628 ft | 255 kts | 315° |
| 2026-05-09 02:26 | 35.73873 | 139.93405 | 10242 ft | 257 kts | 296° |
| 2026-05-09 02:26 | 35.74407 | 139.91236 | 10551 ft | 274 kts | 282° |
| 2026-05-09 02:27 | 35.74690 | 139.88840 | 10834 ft | 290 kts | 279° |
| 2026-05-09 02:27 | 35.74947 | 139.86347 | 11188 ft | 301 kts | 278° |
| 2026-05-09 02:27 | 35.75220 | 139.83756 | 11759 ft | 305 kts | 278° |
| 2026-05-09 02:27 | 35.75508 | 139.81164 | 12376 ft | 307 kts | 278° |
| 2026-05-09 02:28 | 35.75808 | 139.78543 | 12984 ft | 309 kts | 278° |
| 2026-05-09 02:28 | 35.76105 | 139.75955 | 13581 ft | 311 kts | 276° |
| 2026-05-09 02:28 | 35.76154 | 139.73280 | 14145 ft | 312 kts | 264° |
| 2026-05-09 02:28 | 35.75595 | 139.70684 | 14779 ft | 313 kts | 250° |
| 2026-05-09 02:29 | 35.74645 | 139.68313 | 15411 ft | 313 kts | 245° |
| 2026-05-09 02:29 | 35.73609 | 139.65934 | 16031 ft | 312 kts | 245° |
| 2026-05-09 02:29 | 35.72584 | 139.63572 | 16644 ft | 311 kts | 245° |
| 2026-05-09 02:29 | 35.71581 | 139.61243 | 17242 ft | 311 kts | 245° |
| 2026-05-09 02:30 | 35.70570 | 139.58883 | 17821 ft | 311 kts | 245° |
| 2026-05-09 02:30 | 35.69569 | 139.56540 | 18376 ft | 310 kts | 245° |
| 2026-05-09 02:30 | 35.68564 | 139.54186 | 18840 ft | 311 kts | 245° |
| 2026-05-09 02:30 | 35.67560 | 139.51834 | 19308 ft | 311 kts | 245° |
| 2026-05-09 02:31 | 35.66579 | 139.49462 | 19770 ft | 310 kts | 248° |
| 2026-05-09 02:31 | 35.65904 | 139.46953 | 20247 ft | 308 kts | 258° |
| 2026-05-09 02:31 | 35.65719 | 139.44328 | 20709 ft | 310 kts | 266° |
| 2026-05-09 02:31 | 35.65753 | 139.41664 | 21149 ft | 311 kts | 268° |
| 2026-05-09 02:32 | 35.65817 | 139.39008 | 21612 ft | 312 kts | 268° |
| 2026-05-09 02:32 | 35.65877 | 139.36339 | 22034 ft | 312 kts | 268° |
| 2026-05-09 02:32 | 35.65929 | 139.33671 | 22463 ft | 312 kts | 267° |
| 2026-05-09 02:32 | 35.65976 | 139.31033 | 22893 ft | 312 kts | 267° |
| 2026-05-09 02:33 | 35.66019 | 139.28356 | 23265 ft | 314 kts | 267° |
| 2026-05-09 02:33 | 35.66061 | 139.25667 | 23616 ft | 315 kts | 266° |
| 2026-05-09 02:33 | 35.66102 | 139.22966 | 23914 ft | 316 kts | 266° |
| 2026-05-09 02:33 | 35.66145 | 139.20264 | 24175 ft | 317 kts | 266° |
| 2026-05-09 02:34 | 35.66184 | 139.17540 | 24380 ft | 321 kts | 266° |
| 2026-05-09 02:34 | 35.66222 | 139.14782 | 24633 ft | 323 kts | 266° |
| 2026-05-09 02:34 | 35.66202 | 139.12037 | 25002 ft | 321 kts | 264° |
| 2026-05-09 02:34 | 35.66113 | 139.09302 | 25398 ft | 319 kts | 263° |
| 2026-05-09 02:35 | 35.65988 | 139.06575 | 25754 ft | 320 kts | 262° |
| 2026-05-09 02:35 | 35.65848 | 139.03841 | 26037 ft | 321 kts | 262° |
| 2026-05-09 02:35 | 35.65707 | 139.01091 | 26354 ft | 323 kts | 262° |
| 2026-05-09 02:35 | 35.65571 | 138.98330 | 26693 ft | 324 kts | 262° |
| 2026-05-09 02:36 | 35.65441 | 138.95567 | 27015 ft | 325 kts | 262° |
| 2026-05-09 02:36 | 35.65307 | 138.92813 | 27145 ft | 328 kts | 261° |
| 2026-05-09 02:36 | 35.65164 | 138.89990 | 27426 ft | 329 kts | 262° |
| 2026-05-09 02:36 | 35.65042 | 138.87223 | 27908 ft | 326 kts | 262° |
| 2026-05-09 02:37 | 35.64931 | 138.84437 | 28292 ft | 325 kts | 262° |
| 2026-05-09 02:37 | 35.64802 | 138.81631 | 28531 ft | 330 kts | 262° |
| 2026-05-09 02:37 | 35.64669 | 138.78802 | 28861 ft | 333 kts | 262° |
| 2026-05-09 02:37 | 35.64536 | 138.75950 | 29263 ft | 334 kts | 262° |
| 2026-05-09 02:38 | 35.64408 | 138.73090 | 29668 ft | 335 kts | 262° |
| 2026-05-09 02:38 | 35.64279 | 138.70230 | 30079 ft | 336 kts | 262° |
| 2026-05-09 02:38 | 35.64145 | 138.67369 | 30375 ft | 337 kts | 262° |
| 2026-05-09 02:38 | 35.64000 | 138.64478 | 30680 ft | 339 kts | 262° |
| 2026-05-09 02:39 | 35.63849 | 138.61568 | 30983 ft | 341 kts | 262° |
| 2026-05-09 02:39 | 35.63695 | 138.58649 | 31319 ft | 343 kts | 262° |
| 2026-05-09 02:39 | 35.63542 | 138.55749 | 31646 ft | 344 kts | 262° |
| 2026-05-09 02:39 | 35.63387 | 138.52808 | 31992 ft | 345 kts | 261° |
| 2026-05-09 02:40 | 35.63231 | 138.49865 | 32326 ft | 346 kts | 261° |
| 2026-05-09 02:40 | 35.63074 | 138.46901 | 32652 ft | 347 kts | 261° |
| 2026-05-09 02:40 | 35.62917 | 138.43932 | 32949 ft | 349 kts | 261° |
| 2026-05-09 02:40 | 35.62762 | 138.40949 | 33206 ft | 351 kts | 261° |
| 2026-05-09 02:41 | 35.62602 | 138.37968 | 33493 ft | 351 kts | 260° |
| 2026-05-09 02:41 | 35.62438 | 138.34954 | 33807 ft | 352 kts | 261° |
| 2026-05-09 02:41 | 35.62274 | 138.31961 | 34085 ft | 355 kts | 261° |
| 2026-05-09 02:41 | 35.62110 | 138.28910 | 34322 ft | 356 kts | 261° |
| 2026-05-09 02:42 | 35.61944 | 138.25855 | 34479 ft | 360 kts | 261° |
| 2026-05-09 02:42 | 35.61784 | 138.22805 | 34652 ft | 362 kts | 262° |
| 2026-05-09 02:42 | 35.61615 | 138.19697 | 34937 ft | 363 kts | 262° |
| 2026-05-09 02:42 | 35.61447 | 138.16595 | 35251 ft | 364 kts | 262° |
| 2026-05-09 02:43 | 35.61333 | 138.14538 | 35471 ft | 363 kts | 261° |
| 2026-05-09 02:43 | 35.61152 | 138.11444 | 35765 ft | 364 kts | 262° |
| 2026-05-09 02:43 | 35.60973 | 138.08328 | 35988 ft | 366 kts | 262° |
| 2026-05-09 02:43 | 35.60739 | 138.04187 | 36387 ft | 367 kts | 262° |
| 2026-05-09 02:44 | 35.60622 | 138.02076 | 36607 ft | 367 kts | 262° |
| 2026-05-09 02:44 | 35.60438 | 137.98937 | 36877 ft | 368 kts | 262° |
| 2026-05-09 02:44 | 35.60255 | 137.95849 | 37190 ft | 367 kts | 262° |
| 2026-05-09 02:44 | 35.60075 | 137.92708 | 37402 ft | 369 kts | 262° |
| 2026-05-09 02:45 | 35.59896 | 137.89556 | 37616 ft | 370 kts | 262° |
| 2026-05-09 02:45 | 35.59714 | 137.86392 | 37789 ft | 371 kts | 262° |
| 2026-05-09 02:45 | 35.59530 | 137.83223 | 37910 ft | 372 kts | 262° |
| 2026-05-09 02:45 | 35.59336 | 137.80045 | 38141 ft | 373 kts | 262° |
| 2026-05-09 02:46 | 35.59129 | 137.76869 | 38435 ft | 373 kts | 262° |
| 2026-05-09 02:46 | 35.58906 | 137.73688 | 38671 ft | 374 kts | 262° |
| 2026-05-09 02:46 | 35.58674 | 137.70501 | 38879 ft | 374 kts | 262° |
| 2026-05-09 02:46 | 35.58436 | 137.67327 | 39097 ft | 374 kts | 262° |
| 2026-05-09 02:47 | 35.58194 | 137.64141 | 39275 ft | 374 kts | 262° |
| 2026-05-09 02:47 | 35.57952 | 137.60949 | 39448 ft | 375 kts | 262° |
| 2026-05-09 02:47 | 35.57710 | 137.57752 | 39610 ft | 376 kts | 262° |
| 2026-05-09 02:47 | 35.57440 | 137.54596 | 39750 ft | 376 kts | 260° |
| 2026-05-09 02:48 | 35.56972 | 137.51433 | 39902 ft | 376 kts | 256° |
| 2026-05-09 02:48 | 35.56363 | 137.48303 | 40005 ft | 378 kts | 255° |
| 2026-05-09 02:48 | 35.55700 | 137.45167 | 40023 ft | 381 kts | 255° |
| 2026-05-09 02:49 | 35.54303 | 137.38865 | 40036 ft | 383 kts | 254° |
| 2026-05-09 02:49 | 35.52897 | 137.32578 | 40038 ft | 382 kts | 255° |
| 2026-05-09 02:50 | 35.51495 | 137.26227 | 40043 ft | 388 kts | 255° |
| 2026-05-09 02:50 | 35.50084 | 137.19825 | 40046 ft | 393 kts | 255° |
| 2026-05-09 02:51 | 35.48644 | 137.13322 | 40033 ft | 396 kts | 255° |
| 2026-05-09 02:51 | 35.47194 | 137.06796 | 40047 ft | 396 kts | 255° |
| 2026-05-09 02:52 | 35.45745 | 137.00293 | 40058 ft | 395 kts | 255° |
| 2026-05-09 02:52 | 35.44293 | 136.93786 | 40055 ft | 395 kts | 255° |
| 2026-05-09 02:53 | 35.42848 | 136.87333 | 40059 ft | 395 kts | 255° |
| 2026-05-09 02:53 | 35.41390 | 136.80838 | 40060 ft | 395 kts | 255° |
| 2026-05-09 02:54 | 35.39928 | 136.74346 | 40062 ft | 395 kts | 255° |
| 2026-05-09 02:54 | 35.38464 | 136.67859 | 40068 ft | 395 kts | 255° |
| 2026-05-09 02:55 | 35.36994 | 136.61367 | 40075 ft | 396 kts | 255° |
| 2026-05-09 02:55 | 35.35519 | 136.54866 | 40079 ft | 396 kts | 255° |
| 2026-05-09 02:56 | 35.34036 | 136.48348 | 40082 ft | 397 kts | 255° |
| 2026-05-09 02:56 | 35.32555 | 136.41870 | 40087 ft | 398 kts | 255° |
| 2026-05-09 02:57 | 35.31058 | 136.35348 | 40099 ft | 398 kts | 255° |
| 2026-05-09 02:57 | 35.29559 | 136.28830 | 40097 ft | 398 kts | 254° |
| 2026-05-09 02:58 | 35.28057 | 136.22308 | 40102 ft | 397 kts | 255° |
| 2026-05-09 02:58 | 35.26565 | 136.15802 | 40103 ft | 397 kts | 255° |
| 2026-05-09 02:59 | 35.25077 | 136.09342 | 40106 ft | 396 kts | 255° |
| 2026-05-09 02:59 | 35.23573 | 136.02853 | 40106 ft | 396 kts | 255° |
| 2026-05-09 03:00 | 35.22066 | 135.96369 | 40106 ft | 396 kts | 255° |
| 2026-05-09 03:00 | 35.20558 | 135.89901 | 40107 ft | 396 kts | 255° |
| 2026-05-09 03:01 | 35.19035 | 135.83416 | 40105 ft | 396 kts | 255° |
| 2026-05-09 03:01 | 35.17621 | 135.76918 | 40104 ft | 395 kts | 257° |
| 2026-05-09 03:02 | 35.16512 | 135.70329 | 40110 ft | 395 kts | 258° |
| 2026-05-09 03:02 | 35.15470 | 135.63740 | 40114 ft | 395 kts | 258° |
| 2026-05-09 03:03 | 35.14393 | 135.57157 | 40115 ft | 395 kts | 258° |
| 2026-05-09 03:03 | 35.13290 | 135.50613 | 40107 ft | 396 kts | 258° |
| 2026-05-09 03:04 | 35.12171 | 135.44041 | 40107 ft | 396 kts | 258° |
| 2026-05-09 03:04 | 35.11042 | 135.37455 | 40111 ft | 396 kts | 258° |
| 2026-05-09 03:05 | 35.09910 | 135.30862 | 40104 ft | 397 kts | 258° |
| 2026-05-09 03:05 | 35.08780 | 135.24272 | 40108 ft | 396 kts | 258° |
| 2026-05-09 03:06 | 35.07653 | 135.17727 | 40114 ft | 396 kts | 258° |
| 2026-05-09 03:06 | 35.06512 | 135.11144 | 40109 ft | 396 kts | 258° |
| 2026-05-09 03:07 | 35.05373 | 135.04570 | 40104 ft | 396 kts | 258° |
| 2026-05-09 03:07 | 35.04228 | 134.97992 | 40107 ft | 396 kts | 258° |
| 2026-05-09 03:08 | 35.03084 | 134.91454 | 40105 ft | 396 kts | 258° |
| 2026-05-09 03:08 | 35.01925 | 134.84884 | 40100 ft | 397 kts | 258° |
| 2026-05-09 03:09 | 35.00769 | 134.78307 | 40111 ft | 397 kts | 258° |
| 2026-05-09 03:09 | 34.99608 | 134.71722 | 40125 ft | 396 kts | 258° |
| 2026-05-09 03:10 | 34.98417 | 134.65149 | 40121 ft | 396 kts | 257° |
| 2026-05-09 03:10 | 34.97156 | 134.58634 | 40122 ft | 396 kts | 257° |
| 2026-05-09 03:11 | 34.95846 | 134.52092 | 40121 ft | 396 kts | 256° |
| 2026-05-09 03:11 | 34.94526 | 134.45577 | 40125 ft | 396 kts | 257° |
| 2026-05-09 03:12 | 34.93216 | 134.39061 | 40125 ft | 396 kts | 257° |
| 2026-05-09 03:12 | 34.91908 | 134.32537 | 40129 ft | 396 kts | 257° |
| 2026-05-09 03:13 | 34.89973 | 134.22778 | 40127 ft | 397 kts | 257° |
| 2026-05-09 03:13 | 34.88660 | 134.16250 | 40120 ft | 397 kts | 257° |
| 2026-05-09 03:14 | 34.87344 | 134.09717 | 40116 ft | 397 kts | 257° |
| 2026-05-09 03:14 | 34.86021 | 134.03175 | 40110 ft | 397 kts | 257° |
| 2026-05-09 03:15 | 34.84706 | 133.96679 | 40101 ft | 397 kts | 257° |
| 2026-05-09 03:15 | 34.83382 | 133.90144 | 40103 ft | 397 kts | 257° |
| 2026-05-09 03:16 | 34.82045 | 133.83614 | 40104 ft | 397 kts | 256° |
| 2026-05-09 03:16 | 34.80686 | 133.77138 | 40102 ft | 397 kts | 256° |
| 2026-05-09 03:17 | 34.79302 | 133.70618 | 40104 ft | 398 kts | 256° |
| 2026-05-09 03:17 | 34.77925 | 133.64117 | 40112 ft | 399 kts | 256° |
| 2026-05-09 03:18 | 34.76535 | 133.57591 | 40113 ft | 398 kts | 256° |
| 2026-05-09 03:18 | 34.75154 | 133.51073 | 40121 ft | 398 kts | 256° |
| 2026-05-09 03:19 | 34.73771 | 133.44554 | 40130 ft | 398 kts | 256° |
| 2026-05-09 03:19 | 34.72372 | 133.38028 | 40135 ft | 398 kts | 256° |
| 2026-05-09 03:20 | 34.70977 | 133.31540 | 40130 ft | 399 kts | 256° |
| 2026-05-09 03:20 | 34.69571 | 133.25008 | 40135 ft | 399 kts | 256° |
| 2026-05-09 03:21 | 34.68161 | 133.18476 | 40133 ft | 399 kts | 256° |
| 2026-05-09 03:21 | 34.66755 | 133.11975 | 40131 ft | 399 kts | 256° |
| 2026-05-09 03:22 | 34.65349 | 133.05454 | 40131 ft | 399 kts | 256° |
| 2026-05-09 03:22 | 34.63929 | 132.98930 | 40133 ft | 399 kts | 256° |
| 2026-05-09 03:23 | 34.62499 | 132.92413 | 40130 ft | 399 kts | 256° |
| 2026-05-09 03:23 | 34.61072 | 132.85895 | 40134 ft | 399 kts | 256° |
| 2026-05-09 03:24 | 34.59644 | 132.79381 | 40134 ft | 399 kts | 256° |
| 2026-05-09 03:24 | 34.58211 | 132.72879 | 40131 ft | 398 kts | 256° |
| 2026-05-09 03:25 | 34.56783 | 132.66403 | 40130 ft | 399 kts | 256° |
| 2026-05-09 03:25 | 34.55347 | 132.59894 | 40132 ft | 400 kts | 256° |
| 2026-05-09 03:26 | 34.53898 | 132.53373 | 40132 ft | 400 kts | 256° |
| 2026-05-09 03:26 | 34.52449 | 132.46859 | 40138 ft | 400 kts | 256° |
| 2026-05-09 03:27 | 34.50998 | 132.40346 | 40144 ft | 400 kts | 256° |
| 2026-05-09 03:27 | 34.49552 | 132.33870 | 40136 ft | 400 kts | 255° |
| 2026-05-09 03:28 | 34.48088 | 132.27362 | 40144 ft | 400 kts | 255° |
| 2026-05-09 03:28 | 34.46618 | 132.20846 | 40144 ft | 400 kts | 255° |
| 2026-05-09 03:29 | 34.45145 | 132.14323 | 40143 ft | 402 kts | 255° |
| 2026-05-09 03:29 | 34.43668 | 132.07787 | 40139 ft | 402 kts | 255° |
| 2026-05-09 03:30 | 34.42198 | 132.01280 | 40129 ft | 402 kts | 256° |
| 2026-05-09 03:30 | 34.40720 | 131.94748 | 40151 ft | 402 kts | 256° |
| 2026-05-09 03:31 | 34.39240 | 131.88261 | 39935 ft | 393 kts | 255° |
| 2026-05-09 03:31 | 34.38516 | 131.85110 | 39701 ft | 383 kts | 255° |
| 2026-05-09 03:31 | 34.37807 | 131.82035 | 39557 ft | 373 kts | 255° |
| 2026-05-09 03:32 | 34.37113 | 131.79034 | 39105 ft | 371 kts | 255° |
| 2026-05-09 03:32 | 34.36652 | 131.77034 | 38645 ft | 372 kts | 255° |
| 2026-05-09 03:32 | 34.35962 | 131.74009 | 37925 ft | 374 kts | 255° |
| 2026-05-09 03:32 | 34.35273 | 131.70966 | 37260 ft | 374 kts | 255° |
| 2026-05-09 03:33 | 34.34582 | 131.67929 | 36615 ft | 375 kts | 255° |
| 2026-05-09 03:33 | 34.33649 | 131.63893 | 35725 ft | 377 kts | 254° |
| 2026-05-09 03:33 | 34.32941 | 131.60839 | 35162 ft | 375 kts | 254° |
| 2026-05-09 03:33 | 34.32472 | 131.58820 | 34847 ft | 373 kts | 254° |
| 2026-05-09 03:34 | 34.31772 | 131.55809 | 34338 ft | 370 kts | 254° |
| 2026-05-09 03:34 | 34.31077 | 131.52822 | 33777 ft | 368 kts | 254° |
| 2026-05-09 03:34 | 34.30383 | 131.49863 | 33264 ft | 365 kts | 254° |
| 2026-05-09 03:34 | 34.29689 | 131.46921 | 32742 ft | 361 kts | 254° |
| 2026-05-09 03:35 | 34.29002 | 131.44015 | 32245 ft | 358 kts | 255° |
| 2026-05-09 03:35 | 34.28316 | 131.41132 | 31729 ft | 355 kts | 255° |
| 2026-05-09 03:35 | 34.27637 | 131.38269 | 31258 ft | 354 kts | 255° |
| 2026-05-09 03:35 | 34.26963 | 131.35416 | 30758 ft | 352 kts | 255° |
| 2026-05-09 03:36 | 34.26296 | 131.32576 | 30270 ft | 350 kts | 256° |
| 2026-05-09 03:36 | 34.25638 | 131.29755 | 29730 ft | 347 kts | 256° |
| 2026-05-09 03:36 | 34.25003 | 131.26992 | 29223 ft | 344 kts | 256° |
| 2026-05-09 03:36 | 34.24364 | 131.24224 | 28738 ft | 340 kts | 256° |
| 2026-05-09 03:37 | 34.23721 | 131.21486 | 28271 ft | 337 kts | 256° |
| 2026-05-09 03:37 | 34.23081 | 131.18768 | 27768 ft | 334 kts | 256° |
| 2026-05-09 03:37 | 34.22447 | 131.16074 | 27292 ft | 332 kts | 256° |
| 2026-05-09 03:37 | 34.21811 | 131.13394 | 26820 ft | 331 kts | 256° |
| 2026-05-09 03:38 | 34.21176 | 131.10727 | 26319 ft | 329 kts | 256° |
| 2026-05-09 03:38 | 34.20548 | 131.08085 | 25837 ft | 329 kts | 257° |
| 2026-05-09 03:38 | 34.19918 | 131.05428 | 25338 ft | 328 kts | 257° |
| 2026-05-09 03:38 | 34.19282 | 131.02792 | 24845 ft | 327 kts | 256° |
| 2026-05-09 03:39 | 34.18482 | 131.00208 | 24364 ft | 328 kts | 252° |
| 2026-05-09 03:39 | 34.17617 | 130.97654 | 23872 ft | 330 kts | 252° |
| 2026-05-09 03:39 | 34.16728 | 130.95091 | 23307 ft | 331 kts | 251° |
| 2026-05-09 03:39 | 34.15827 | 130.92535 | 22782 ft | 330 kts | 251° |
| 2026-05-09 03:40 | 34.14931 | 130.90022 | 22285 ft | 330 kts | 251° |
| 2026-05-09 03:40 | 34.14019 | 130.87477 | 21639 ft | 331 kts | 251° |
| 2026-05-09 03:40 | 34.13092 | 130.84879 | 20797 ft | 340 kts | 251° |
| 2026-05-09 03:40 | 34.12155 | 130.82264 | 20296 ft | 339 kts | 251° |
| 2026-05-09 03:41 | 34.11201 | 130.79667 | 19837 ft | 338 kts | 251° |
| 2026-05-09 03:41 | 34.10241 | 130.77079 | 19356 ft | 337 kts | 251° |
| 2026-05-09 03:41 | 34.09278 | 130.74504 | 18882 ft | 337 kts | 251° |
| 2026-05-09 03:41 | 34.08309 | 130.71920 | 18389 ft | 337 kts | 251° |
| 2026-05-09 03:42 | 34.07355 | 130.69374 | 17884 ft | 337 kts | 251° |
| 2026-05-09 03:42 | 34.06397 | 130.66799 | 17401 ft | 336 kts | 251° |
| 2026-05-09 03:42 | 34.05445 | 130.64237 | 16929 ft | 334 kts | 251° |
| 2026-05-09 03:42 | 34.04496 | 130.61675 | 16446 ft | 334 kts | 251° |
| 2026-05-09 03:43 | 34.03551 | 130.59134 | 15973 ft | 333 kts | 251° |
| 2026-05-09 03:43 | 34.02591 | 130.56563 | 15505 ft | 331 kts | 250° |
| 2026-05-09 03:43 | 34.01654 | 130.54076 | 15372 ft | 319 kts | 250° |
| 2026-05-09 03:43 | 34.00762 | 130.51716 | 15251 ft | 306 kts | 251° |
| 2026-05-09 03:44 | 33.99908 | 130.49521 | 15076 ft | 299 kts | 247° |
| 2026-05-09 03:44 | 33.98767 | 130.47423 | 14707 ft | 301 kts | 239° |
| 2026-05-09 03:44 | 33.97490 | 130.45425 | 14336 ft | 299 kts | 237° |
| 2026-05-09 03:44 | 33.96204 | 130.43458 | 13981 ft | 297 kts | 237° |
| 2026-05-09 03:45 | 33.94930 | 130.41508 | 13607 ft | 295 kts | 237° |
| 2026-05-09 03:45 | 33.93662 | 130.39612 | 13258 ft | 295 kts | 233° |
| 2026-05-09 03:45 | 33.92097 | 130.38000 | 13022 ft | 299 kts | 220° |
| 2026-05-09 03:45 | 33.90312 | 130.36597 | 12701 ft | 304 kts | 217° |
| 2026-05-09 03:46 | 33.88544 | 130.35272 | 12437 ft | 303 kts | 217° |
| 2026-05-09 03:46 | 33.86750 | 130.33930 | 12245 ft | 303 kts | 217° |
| 2026-05-09 03:46 | 33.84950 | 130.32578 | 12035 ft | 302 kts | 217° |
| 2026-05-09 03:46 | 33.83186 | 130.31249 | 11834 ft | 301 kts | 217° |
| 2026-05-09 03:47 | 33.81429 | 130.29922 | 11630 ft | 300 kts | 217° |
| 2026-05-09 03:47 | 33.79644 | 130.28574 | 11429 ft | 299 kts | 217° |
| 2026-05-09 03:47 | 33.77894 | 130.27252 | 11227 ft | 298 kts | 216° |
| 2026-05-09 03:47 | 33.76132 | 130.25921 | 11021 ft | 297 kts | 216° |
| 2026-05-09 03:48 | 33.74396 | 130.24610 | 10839 ft | 296 kts | 216° |
| 2026-05-09 03:48 | 33.72654 | 130.23303 | 10640 ft | 296 kts | 214° |
| 2026-05-09 03:48 | 33.70744 | 130.22328 | 10425 ft | 301 kts | 195° |
| 2026-05-09 03:48 | 33.68669 | 130.22356 | 10234 ft | 306 kts | 168° |
| 2026-05-09 03:49 | 33.66751 | 130.23450 | 10024 ft | 307 kts | 148° |
| 2026-05-09 03:49 | 33.65008 | 130.24916 | 9809 ft | 306 kts | 145° |
| 2026-05-09 03:49 | 33.63278 | 130.26429 | 9600 ft | 305 kts | 145° |
| 2026-05-09 03:49 | 33.61561 | 130.27918 | 9383 ft | 304 kts | 145° |
| 2026-05-09 03:50 | 33.59850 | 130.29388 | 9183 ft | 303 kts | 146° |
| 2026-05-09 03:50 | 33.58153 | 130.30834 | 8989 ft | 302 kts | 146° |
| 2026-05-09 03:50 | 33.56439 | 130.32275 | 8786 ft | 300 kts | 146° |
| 2026-05-09 03:50 | 33.54704 | 130.33668 | 8572 ft | 299 kts | 147° |
| 2026-05-09 03:51 | 33.52970 | 130.35037 | 8376 ft | 299 kts | 148° |
| 2026-05-09 03:51 | 33.51224 | 130.36389 | 8181 ft | 297 kts | 148° |
| 2026-05-09 03:51 | 33.49491 | 130.37726 | 7990 ft | 296 kts | 148° |
| 2026-05-09 03:51 | 33.47762 | 130.39059 | 7785 ft | 295 kts | 148° |
| 2026-05-09 03:52 | 33.46034 | 130.40402 | 7583 ft | 294 kts | 147° |
| 2026-05-09 03:52 | 33.44322 | 130.41726 | 7396 ft | 293 kts | 147° |
| 2026-05-09 03:52 | 33.42603 | 130.43056 | 7210 ft | 293 kts | 147° |
| 2026-05-09 03:52 | 33.40892 | 130.44361 | 7021 ft | 291 kts | 149° |
| 2026-05-09 03:53 | 33.39186 | 130.45646 | 6812 ft | 290 kts | 149° |
| 2026-05-09 03:53 | 33.37491 | 130.46933 | 6613 ft | 290 kts | 148° |
| 2026-05-09 03:53 | 33.35799 | 130.48225 | 6432 ft | 288 kts | 148° |
| 2026-05-09 03:53 | 33.34142 | 130.49500 | 6354 ft | 277 kts | 148° |
| 2026-05-09 03:54 | 33.32562 | 130.50709 | 6282 ft | 266 kts | 148° |
| 2026-05-09 03:54 | 33.31047 | 130.51910 | 6197 ft | 256 kts | 142° |
| 2026-05-09 03:54 | 33.29939 | 130.53500 | 5869 ft | 244 kts | 111° |
| 2026-05-09 03:54 | 33.29759 | 130.55397 | 5611 ft | 230 kts | 78° |
| 2026-05-09 03:55 | 33.30334 | 130.57162 | 5420 ft | 227 kts | 59° |
| 2026-05-09 03:55 | 33.31121 | 130.58789 | 5297 ft | 228 kts | 57° |
| 2026-05-09 03:55 | 33.32012 | 130.60310 | 5112 ft | 221 kts | 44° |
| 2026-05-09 03:55 | 33.33242 | 130.61239 | 4983 ft | 200 kts | 15° |
| 2026-05-09 03:56 | 33.34556 | 130.61315 | 4799 ft | 186 kts | 350° |
| 2026-05-09 03:56 | 33.35770 | 130.60753 | 4373 ft | 187 kts | 333° |
| 2026-05-09 03:56 | 33.36913 | 130.59976 | 3970 ft | 194 kts | 330° |
| 2026-05-09 03:56 | 33.38076 | 130.59147 | 3730 ft | 192 kts | 329° |
| 2026-05-09 03:57 | 33.39201 | 130.58343 | 3590 ft | 185 kts | 329° |
| 2026-05-09 03:57 | 33.40309 | 130.57553 | 3476 ft | 185 kts | 330° |
| 2026-05-09 03:57 | 33.41426 | 130.56775 | 3346 ft | 185 kts | 330° |
| 2026-05-09 03:57 | 33.42533 | 130.56015 | 3225 ft | 184 kts | 331° |
| 2026-05-09 03:58 | 33.43658 | 130.55275 | 3119 ft | 184 kts | 333° |
| 2026-05-09 03:58 | 33.44771 | 130.54525 | 2927 ft | 186 kts | 330° |
| 2026-05-09 03:58 | 33.45897 | 130.53739 | 2668 ft | 192 kts | 330° |
| 2026-05-09 03:58 | 33.47069 | 130.52940 | 2356 ft | 193 kts | 330° |
| 2026-05-09 03:59 | 33.48210 | 130.52169 | 2133 ft | 186 kts | 332° |
| 2026-05-09 03:59 | 33.49326 | 130.51417 | 1879 ft | 180 kts | 331° |
| 2026-05-09 03:59 | 33.50382 | 130.50679 | 1666 ft | 172 kts | 330° |
| 2026-05-09 03:59 | 33.51400 | 130.49985 | 1428 ft | 163 kts | 332° |
| 2026-05-09 04:00 | 33.52354 | 130.49340 | 1216 ft | 153 kts | 329° |
| 2026-05-09 04:00 | 33.53258 | 130.48714 | 1017 ft | 149 kts | 331° |
| 2026-05-09 04:00 | 33.54150 | 130.48110 | 810 ft | 141 kts | 329° |
| 2026-05-09 04:00 | 33.54961 | 130.47552 | 643 ft | 131 kts | 329° |
| 2026-05-09 04:01 | 33.55743 | 130.47016 | 468 ft | 129 kts | 329° |
| 2026-05-09 04:01 | 33.56520 | 130.46482 | 355 ft | 129 kts | 329° |
| 2026-05-09 04:01 | 33.57296 | 130.45954 | 145 ft | 125 kts | 329° |
| 2026-05-09 04:01 | 33.58036 | 130.45446 | 48 ft | 122 kts | 330° |
| 2026-05-09 04:02 | 33.58617 | 130.45048 | 41 ft | 61 kts | 330° |
| 2026-05-09 04:02 | 33.58945 | 130.44829 | 36 ft | 46 kts | 330° |
| 2026-05-09 04:02 | 33.59137 | 130.44633 | 34 ft | 17 kts | 305° |
| 2026-05-09 04:02 | 33.59200 | 130.44509 | 34 ft | 18 kts | 300° |
| 2026-05-09 04:03 | 33.59212 | 130.44389 | 36 ft | 14 kts | 245° |
| 2026-05-09 04:03 | 33.59151 | 130.44320 | 36 ft | 9 kts | 177° |
| 2026-05-09 04:03 | 33.59078 | 130.44360 | 35 ft | 14 kts | 150° |
| 2026-05-09 04:03 | 33.58987 | 130.44420 | 36 ft | 16 kts | 151° |
| 2026-05-09 04:04 | 33.58893 | 130.44482 | 38 ft | 12 kts | 151° |
| 2026-05-09 04:04 | 33.58817 | 130.44507 | 38 ft | 12 kts | 196° |
| 2026-05-09 04:04 | 33.58781 | 130.44438 | 36 ft | 12 kts | 243° |
| 2026-05-09 04:04 | 33.58757 | 130.44387 | 37 ft | 3 kts | 241° |
| 2026-05-09 04:05 | 33.58757 | 130.44386 | 37 ft | 0 kts | 241° |